sensor_id;sensor_type;location;lat;lon;timestamp;temperature;humidity
13572;DHT22;6857;53.484;10.216;2023-05-09T13:57:01;23.50;65.80
13572;DHT22;6857;53.484;10.216;2023-05-09T13:59:28;23.60;66.50
13572;DHT22;6857;53.484;10.216;2023-05-09T14:01:53;23.60;66.30
13572;DHT22;6857;53.484;10.216;2023-05-09T14:04:21;23.10;66.80
13572;DHT22;6857;53.484;10.216;2023-05-09T14:06:47;23.20;66.70
13572;DHT22;6857;53.484;10.216;2023-05-09T14:09:14;23.20;66.30
13572;DHT22;6857;53.484;10.216;2023-05-09T14:11:40;23.00;66.30
13572;DHT22;6857;53.484;10.216;2023-05-09T14:14:06;23.20;66.90
13572;DHT22;6857;53.484;10.216;2023-05-09T14:16:32;23.00;65.20
13572;DHT22;6857;53.484;10.216;2023-05-09T14:18:58;23.00;66.40
13572;DHT22;6857;53.484;10.216;2023-05-09T14:21:23;23.10;66.60
13572;DHT22;6857;53.484;10.216;2023-05-09T14:23:49;23.00;65.60
13572;DHT22;6857;53.484;10.216;2023-05-09T14:26:16;23.10;65.10
13572;DHT22;6857;53.484;10.216;2023-05-09T14:28:42;23.30;64.80
13572;DHT22;6857;53.484;10.216;2023-05-09T14:31:08;23.10;65.10
13572;DHT22;6857;53.484;10.216;2023-05-09T14:33:34;23.30;64.70
13572;DHT22;6857;53.484;10.216;2023-05-09T14:36:01;23.20;63.80
13572;DHT22;6857;53.484;10.216;2023-05-09T14:38:27;22.80;64.20
13572;DHT22;6857;53.484;10.216;2023-05-09T14:40:54;22.70;64.90
13572;DHT22;6857;53.484;10.216;2023-05-09T14:43:20;23.00;63.90
13572;DHT22;6857;53.484;10.216;2023-05-09T14:45:46;23.40;64.30
13572;DHT22;6857;53.484;10.216;2023-05-09T14:48:12;23.90;62.90
13572;DHT22;6857;53.484;10.216;2023-05-09T14:50:37;24.00;61.30
13572;DHT22;6857;53.484;10.216;2023-05-09T14:53:03;24.60;61.60
13572;DHT22;6857;53.484;10.216;2023-05-09T14:55:29;24.60;63.50
13572;DHT22;6857;53.484;10.216;2023-05-09T14:57:56;24.30;65.30
13572;DHT22;6857;53.484;10.216;2023-05-09T15:00:22;24.00;67.10
13572;DHT22;6857;53.484;10.216;2023-05-09T15:02:49;24.10;65.60
13572;DHT22;6857;53.484;10.216;2023-05-09T15:05:15;24.40;64.40
13572;DHT22;6857;53.484;10.216;2023-05-09T15:07:41;24.80;63.50
13572;DHT22;6857;53.484;10.216;2023-05-09T15:10:06;24.60;59.20
13572;DHT22;6857;53.484;10.216;2023-05-09T15:12:32;23.90;60.30
13572;DHT22;6857;53.484;10.216;2023-05-09T15:15:14;23.90;61.80
13572;DHT22;6857;53.484;10.216;2023-05-09T15:17:41;24.20;61.70
13572;DHT22;6857;53.484;10.216;2023-05-09T15:20:07;24.90;60.40
13572;DHT22;6857;53.484;10.216;2023-05-09T15:22:33;24.50;59.70
13572;DHT22;6857;53.484;10.216;2023-05-09T15:24:59;24.10;59.60
13572;DHT22;6857;53.484;10.216;2023-05-09T15:27:27;23.90;60.50
13572;DHT22;6857;53.484;10.216;2023-05-09T15:29:53;23.50;64.20
13572;DHT22;6857;53.484;10.216;2023-05-09T15:32:19;23.10;64.50
13572;DHT22;6857;53.484;10.216;2023-05-09T15:34:45;23.10;63.90
13572;DHT22;6857;53.484;10.216;2023-05-09T15:37:11;23.30;65.00
13572;DHT22;6857;53.484;10.216;2023-05-09T15:39:37;23.20;65.10
13572;DHT22;6857;53.484;10.216;2023-05-09T15:42:10;23.50;64.30
13572;DHT22;6857;53.484;10.216;2023-05-09T15:44:42;23.80;62.90
13572;DHT22;6857;53.484;10.216;2023-05-09T15:47:08;23.70;63.10
13572;DHT22;6857;53.484;10.216;2023-05-09T15:49:34;23.40;68.50
13572;DHT22;6857;53.484;10.216;2023-05-09T15:52:07;23.30;66.30
13572;DHT22;6857;53.484;10.216;2023-05-09T15:54:34;23.20;56.40
13572;DHT22;6857;53.484;10.216;2023-05-09T15:57:00;23.20;57.70
13572;DHT22;6857;53.484;10.216;2023-05-09T15:59:26;23.10;57.50
13572;DHT22;6857;53.484;10.216;2023-05-09T16:01:52;22.90;57.50
13572;DHT22;6857;53.484;10.216;2023-05-09T16:04:17;22.80;57.40
13572;DHT22;6857;53.484;10.216;2023-05-09T16:06:43;22.50;58.30
13572;DHT22;6857;53.484;10.216;2023-05-09T16:09:09;22.10;58.40
13572;DHT22;6857;53.484;10.216;2023-05-09T16:11:34;22.00;59.20
13572;DHT22;6857;53.484;10.216;2023-05-09T16:14:00;22.00;59.40
13572;DHT22;6857;53.484;10.216;2023-05-09T16:16:26;21.70;58.80
13572;DHT22;6857;53.484;10.216;2023-05-09T16:18:52;21.60;59.20
13572;DHT22;6857;53.484;10.216;2023-05-09T16:21:18;21.50;59.10
13572;DHT22;6857;53.484;10.216;2023-05-09T16:23:44;21.50;59.20
13572;DHT22;6857;53.484;10.216;2023-05-09T16:26:10;21.40;59.00
13572;DHT22;6857;53.484;10.216;2023-05-09T16:28:35;21.40;59.60
13572;DHT22;6857;53.484;10.216;2023-05-09T16:31:01;21.30;60.10
13572;DHT22;6857;53.484;10.216;2023-05-09T16:33:29;21.40;61.10
13572;DHT22;6857;53.484;10.216;2023-05-09T16:35:56;21.40;61.10
13572;DHT22;6857;53.484;10.216;2023-05-09T16:38:23;21.50;60.90
13572;DHT22;6857;53.484;10.216;2023-05-09T16:40:48;21.40;60.10
13572;DHT22;6857;53.484;10.216;2023-05-09T16:43:15;21.40;60.20
13572;DHT22;6857;53.484;10.216;2023-05-09T16:45:41;21.20;59.90
13572;DHT22;6857;53.484;10.216;2023-05-09T16:48:06;21.10;62.90
13572;DHT22;6857;53.484;10.216;2023-05-09T16:50:32;21.10;62.60
13572;DHT22;6857;53.484;10.216;2023-05-09T16:52:57;21.10;63.10
13572;DHT22;6857;53.484;10.216;2023-05-09T16:55:23;21.00;65.00
13572;DHT22;6857;53.484;10.216;2023-05-09T16:57:49;21.00;65.40
13572;DHT22;6857;53.484;10.216;2023-05-09T17:00:14;20.80;59.70
13572;DHT22;6857;53.484;10.216;2023-05-09T17:02:40;20.70;59.90
13572;DHT22;6857;53.484;10.216;2023-05-09T17:05:06;20.70;60.70
13572;DHT22;6857;53.484;10.216;2023-05-09T17:07:32;20.70;60.50
13572;DHT22;6857;53.484;10.216;2023-05-09T17:09:57;20.50;60.20
13572;DHT22;6857;53.484;10.216;2023-05-09T17:12:23;20.50;60.10
13572;DHT22;6857;53.484;10.216;2023-05-09T17:14:48;20.40;60.30
13572;DHT22;6857;53.484;10.216;2023-05-09T17:17:14;20.30;60.60
13572;DHT22;6857;53.484;10.216;2023-05-09T17:19:42;20.20;60.60
13572;DHT22;6857;53.484;10.216;2023-05-09T17:22:08;20.20;61.30
13572;DHT22;6857;53.484;10.216;2023-05-09T17:24:33;20.00;61.30
13572;DHT22;6857;53.484;10.216;2023-05-09T17:26:59;19.90;61.30
13572;DHT22;6857;53.484;10.216;2023-05-09T17:29:25;19.90;60.80
13572;DHT22;6857;53.484;10.216;2023-05-09T17:31:54;19.90;61.10
13572;DHT22;6857;53.484;10.216;2023-05-09T17:34:21;19.90;61.60
13572;DHT22;6857;53.484;10.216;2023-05-09T17:36:47;19.80;62.20
13572;DHT22;6857;53.484;10.216;2023-05-09T17:39:12;19.50;62.60
13572;DHT22;6857;53.484;10.216;2023-05-09T17:41:38;19.80;63.00
13572;DHT22;6857;53.484;10.216;2023-05-09T17:44:04;19.70;62.50
13572;DHT22;6857;53.484;10.216;2023-05-09T17:46:30;19.60;63.30
13572;DHT22;6857;53.484;10.216;2023-05-09T17:48:56;19.70;63.40
13572;DHT22;6857;53.484;10.216;2023-05-09T17:51:22;19.50;61.40
13572;DHT22;6857;53.484;10.216;2023-05-09T17:53:48;19.50;60.70
13572;DHT22;6857;53.484;10.216;2023-05-09T17:56:13;19.40;61.10
13572;DHT22;6857;53.484;10.216;2023-05-09T17:58:39;19.30;60.80
13572;DHT22;6857;53.484;10.216;2023-05-09T18:01:04;19.20;60.80
13572;DHT22;6857;53.484;10.216;2023-05-09T18:03:31;19.20;61.30
13572;DHT22;6857;53.484;10.216;2023-05-09T18:05:57;19.20;61.60
13572;DHT22;6857;53.484;10.216;2023-05-09T18:08:24;19.20;61.80
13572;DHT22;6857;53.484;10.216;2023-05-09T18:10:51;19.10;61.90
13572;DHT22;6857;53.484;10.216;2023-05-09T18:13:19;19.00;62.40
13572;DHT22;6857;53.484;10.216;2023-05-09T18:15:45;19.00;63.00
13572;DHT22;6857;53.484;10.216;2023-05-09T18:18:11;19.00;62.70
13572;DHT22;6857;53.484;10.216;2023-05-09T18:20:40;18.90;63.00
13572;DHT22;6857;53.484;10.216;2023-05-09T18:23:05;18.80;63.40
13572;DHT22;6857;53.484;10.216;2023-05-09T18:25:31;18.80;63.90
13572;DHT22;6857;53.484;10.216;2023-05-09T18:27:59;18.70;64.00
13572;DHT22;6857;53.484;10.216;2023-05-09T18:30:25;18.60;64.30
13572;DHT22;6857;53.484;10.216;2023-05-09T18:32:51;18.60;65.10
13572;DHT22;6857;53.484;10.216;2023-05-09T18:35:17;18.60;65.70
13572;DHT22;6857;53.484;10.216;2023-05-09T18:37:43;18.60;66.30
13572;DHT22;6857;53.484;10.216;2023-05-09T18:40:09;18.40;66.50
13572;DHT22;6857;53.484;10.216;2023-05-09T18:42:42;18.40;66.60
13572;DHT22;6857;53.484;10.216;2023-05-09T18:45:08;18.50;67.30
13572;DHT22;6857;53.484;10.216;2023-05-09T18:47:34;18.30;67.20
13572;DHT22;6857;53.484;10.216;2023-05-09T18:50:00;18.20;67.70
13572;DHT22;6857;53.484;10.216;2023-05-09T18:52:26;18.20;68.10
13572;DHT22;6857;53.484;10.216;2023-05-09T18:54:52;18.20;68.70
13572;DHT22;6857;53.484;10.216;2023-05-09T18:57:17;18.20;68.40
13572;DHT22;6857;53.484;10.216;2023-05-09T18:59:44;18.10;68.60
13572;DHT22;6857;53.484;10.216;2023-05-09T19:02:10;18.00;69.10
13572;DHT22;6857;53.484;10.216;2023-05-09T19:04:36;18.00;69.40
13572;DHT22;6857;53.484;10.216;2023-05-09T19:07:01;17.90;69.30
13572;DHT22;6857;53.484;10.216;2023-05-09T19:09:27;17.80;69.70
13572;DHT22;6857;53.484;10.216;2023-05-09T19:11:54;17.80;69.90
13572;DHT22;6857;53.484;10.216;2023-05-09T19:14:20;17.80;70.00
13572;DHT22;6857;53.484;10.216;2023-05-09T19:16:47;17.80;70.70
13572;DHT22;6857;53.484;10.216;2023-05-09T19:19:12;17.80;71.00
13572;DHT22;6857;53.484;10.216;2023-05-09T19:21:38;17.70;71.10
13572;DHT22;6857;53.484;10.216;2023-05-09T19:24:04;17.70;71.10
13572;DHT22;6857;53.484;10.216;2023-05-09T19:26:30;17.70;71.70
13572;DHT22;6857;53.484;10.216;2023-05-09T19:28:56;17.70;71.70
13572;DHT22;6857;53.484;10.216;2023-05-09T19:31:21;17.60;71.90
13572;DHT22;6857;53.484;10.216;2023-05-09T19:33:49;17.60;72.60
13572;DHT22;6857;53.484;10.216;2023-05-09T19:36:15;17.60;73.00
13572;DHT22;6857;53.484;10.216;2023-05-09T19:38:42;17.50;73.20
13572;DHT22;6857;53.484;10.216;2023-05-09T19:41:07;17.50;73.30
13572;DHT22;6857;53.484;10.216;2023-05-09T19:43:33;17.40;73.80
13572;DHT22;6857;53.484;10.216;2023-05-09T19:45:58;17.40;74.10
13572;DHT22;6857;53.484;10.216;2023-05-09T19:48:24;17.40;74.50
13572;DHT22;6857;53.484;10.216;2023-05-09T19:50:55;17.30;75.00
13572;DHT22;6857;53.484;10.216;2023-05-09T19:53:21;17.20;75.70
13572;DHT22;6857;53.484;10.216;2023-05-09T19:55:46;17.20;75.90
13572;DHT22;6857;53.484;10.216;2023-05-09T19:58:12;17.20;75.90
13572;DHT22;6857;53.484;10.216;2023-05-09T20:00:39;17.10;76.80
13572;DHT22;6857;53.484;10.216;2023-05-09T20:03:05;17.10;76.60
13572;DHT22;6857;53.484;10.216;2023-05-09T20:05:31;17.10;77.70
13572;DHT22;6857;53.484;10.216;2023-05-09T20:07:56;17.00;78.20
13572;DHT22;6857;53.484;10.216;2023-05-09T20:10:24;16.90;78.30
13572;DHT22;6857;53.484;10.216;2023-05-09T20:12:50;16.90;78.20
13572;DHT22;6857;53.484;10.216;2023-05-09T20:15:17;16.50;78.30
13572;DHT22;6857;53.484;10.216;2023-05-09T20:17:43;16.80;79.20
13572;DHT22;6857;53.484;10.216;2023-05-09T20:20:10;16.80;79.90
13572;DHT22;6857;53.484;10.216;2023-05-09T20:22:36;16.90;80.80
13572;DHT22;6857;53.484;10.216;2023-05-09T20:25:02;16.60;80.90
13572;DHT22;6857;53.484;10.216;2023-05-09T20:27:27;16.60;81.50
13572;DHT22;6857;53.484;10.216;2023-05-09T20:29:53;16.50;82.10
13572;DHT22;6857;53.484;10.216;2023-05-09T20:32:19;16.50;82.30
13572;DHT22;6857;53.484;10.216;2023-05-09T20:34:46;16.50;83.20
13572;DHT22;6857;53.484;10.216;2023-05-09T20:37:12;16.40;84.00
13572;DHT22;6857;53.484;10.216;2023-05-09T20:39:37;16.40;84.10
13572;DHT22;6857;53.484;10.216;2023-05-09T20:42:03;16.30;84.80
13572;DHT22;6857;53.484;10.216;2023-05-09T20:44:31;16.30;85.70
13572;DHT22;6857;53.484;10.216;2023-05-09T20:46:56;16.40;87.20
13572;DHT22;6857;53.484;10.216;2023-05-09T20:49:22;16.20;86.80
13572;DHT22;6857;53.484;10.216;2023-05-09T20:51:48;16.10;87.60
13572;DHT22;6857;53.484;10.216;2023-05-09T20:54:14;16.10;88.80
13572;DHT22;6857;53.484;10.216;2023-05-09T20:56:39;16.10;89.20
13572;DHT22;6857;53.484;10.216;2023-05-09T20:59:05;16.00;90.20
13572;DHT22;6857;53.484;10.216;2023-05-09T21:01:31;16.00;90.30
13572;DHT22;6857;53.484;10.216;2023-05-09T21:03:59;16.00;90.60
13572;DHT22;6857;53.484;10.216;2023-05-09T21:06:25;16.00;91.00
13572;DHT22;6857;53.484;10.216;2023-05-09T21:08:51;16.00;90.20
13572;DHT22;6857;53.484;10.216;2023-05-09T21:11:16;15.90;86.40
13572;DHT22;6857;53.484;10.216;2023-05-09T21:13:42;15.90;87.40
13572;DHT22;6857;53.484;10.216;2023-05-09T21:16:08;15.90;87.90
13572;DHT22;6857;53.484;10.216;2023-05-09T21:18:33;15.80;88.90
13572;DHT22;6857;53.484;10.216;2023-05-09T21:21:00;15.80;89.90
13572;DHT22;6857;53.484;10.216;2023-05-09T21:23:27;15.80;90.20
13572;DHT22;6857;53.484;10.216;2023-05-09T21:25:53;15.80;90.70
13572;DHT22;6857;53.484;10.216;2023-05-09T21:28:18;15.80;91.10
13572;DHT22;6857;53.484;10.216;2023-05-09T21:30:49;15.90;91.40
13572;DHT22;6857;53.484;10.216;2023-05-09T21:33:16;15.80;91.20
13572;DHT22;6857;53.484;10.216;2023-05-09T21:35:42;15.80;91.10
13572;DHT22;6857;53.484;10.216;2023-05-09T21:38:07;15.70;91.40
13572;DHT22;6857;53.484;10.216;2023-05-09T21:40:33;15.70;91.80
13572;DHT22;6857;53.484;10.216;2023-05-09T21:42:59;15.70;92.10
13572;DHT22;6857;53.484;10.216;2023-05-09T21:45:24;15.60;92.50
13572;DHT22;6857;53.484;10.216;2023-05-09T21:47:50;15.70;92.70
13572;DHT22;6857;53.484;10.216;2023-05-09T21:50:15;15.60;92.20
13572;DHT22;6857;53.484;10.216;2023-05-09T21:52:41;15.60;92.30
13572;DHT22;6857;53.484;10.216;2023-05-09T21:55:07;15.50;92.40
13572;DHT22;6857;53.484;10.216;2023-05-09T21:57:32;15.50;92.50
13572;DHT22;6857;53.484;10.216;2023-05-09T21:59:58;15.50;92.90
13572;DHT22;6857;53.484;10.216;2023-05-09T22:02:26;15.50;93.30
13572;DHT22;6857;53.484;10.216;2023-05-09T22:04:53;15.50;93.70
13572;DHT22;6857;53.484;10.216;2023-05-09T22:07:19;15.40;94.10
13572;DHT22;6857;53.484;10.216;2023-05-09T22:09:45;15.40;94.70
13572;DHT22;6857;53.484;10.216;2023-05-09T22:12:11;15.40;95.80
13572;DHT22;6857;53.484;10.216;2023-05-09T22:14:37;15.30;96.10
13572;DHT22;6857;53.484;10.216;2023-05-09T22:17:03;15.30;96.50
13572;DHT22;6857;53.484;10.216;2023-05-09T22:19:28;15.30;97.00
13572;DHT22;6857;53.484;10.216;2023-05-09T22:21:54;15.20;97.40
13572;DHT22;6857;53.484;10.216;2023-05-09T22:24:19;15.20;97.90
13572;DHT22;6857;53.484;10.216;2023-05-09T22:26:45;15.10;98.40
13572;DHT22;6857;53.484;10.216;2023-05-09T22:29:11;15.10;99.80
13572;DHT22;6857;53.484;10.216;2023-05-09T22:31:36;15.40;99.90
13572;DHT22;6857;53.484;10.216;2023-05-09T22:34:02;15.00;99.90
13572;DHT22;6857;53.484;10.216;2023-05-09T22:36:28;15.00;99.90
13572;DHT22;6857;53.484;10.216;2023-05-09T22:38:53;14.90;99.90
13572;DHT22;6857;53.484;10.216;2023-05-09T22:41:19;14.90;99.90
13572;DHT22;6857;53.484;10.216;2023-05-09T22:43:45;14.90;99.90
13572;DHT22;6857;53.484;10.216;2023-05-09T22:46:11;14.80;99.90
13572;DHT22;6857;53.484;10.216;2023-05-09T22:48:37;14.90;99.90
13572;DHT22;6857;53.484;10.216;2023-05-09T22:51:02;14.80;99.90
13572;DHT22;6857;53.484;10.216;2023-05-09T22:53:28;14.80;99.90
13572;DHT22;6857;53.484;10.216;2023-05-09T22:55:53;14.70;99.90
13572;DHT22;6857;53.484;10.216;2023-05-09T22:58:19;14.60;99.90
13572;DHT22;6857;53.484;10.216;2023-05-09T23:00:44;14.70;99.90
13572;DHT22;6857;53.484;10.216;2023-05-09T23:03:10;14.70;99.90
13572;DHT22;6857;53.484;10.216;2023-05-09T23:05:36;14.60;99.90
13572;DHT22;6857;53.484;10.216;2023-05-09T23:08:01;14.50;99.90
13572;DHT22;6857;53.484;10.216;2023-05-09T23:10:27;14.50;99.90
13572;DHT22;6857;53.484;10.216;2023-05-09T23:12:52;14.50;99.90
13572;DHT22;6857;53.484;10.216;2023-05-09T23:15:18;14.50;99.90
13572;DHT22;6857;53.484;10.216;2023-05-09T23:17:43;14.80;99.90
13572;DHT22;6857;53.484;10.216;2023-05-09T23:20:09;14.40;99.90
13572;DHT22;6857;53.484;10.216;2023-05-09T23:22:35;14.40;99.90
13572;DHT22;6857;53.484;10.216;2023-05-09T23:25:01;14.40;99.90
13572;DHT22;6857;53.484;10.216;2023-05-09T23:27:27;14.40;99.90
13572;DHT22;6857;53.484;10.216;2023-05-09T23:29:55;14.40;99.90
13572;DHT22;6857;53.484;10.216;2023-05-09T23:32:20;14.40;99.90
13572;DHT22;6857;53.484;10.216;2023-05-09T23:34:46;14.30;99.90
13572;DHT22;6857;53.484;10.216;2023-05-09T23:37:12;14.30;99.90
13572;DHT22;6857;53.484;10.216;2023-05-09T23:39:37;14.20;99.90
13572;DHT22;6857;53.484;10.216;2023-05-09T23:42:03;14.20;99.90
13572;DHT22;6857;53.484;10.216;2023-05-09T23:44:29;14.20;99.90
13572;DHT22;6857;53.484;10.216;2023-05-09T23:46:54;14.20;99.90
13572;DHT22;6857;53.484;10.216;2023-05-09T23:49:20;14.20;99.90
13572;DHT22;6857;53.484;10.216;2023-05-09T23:51:45;14.10;99.90
13572;DHT22;6857;53.484;10.216;2023-05-09T23:54:11;14.10;99.90
13572;DHT22;6857;53.484;10.216;2023-05-09T23:56:37;14.10;99.90
13572;DHT22;6857;53.484;10.216;2023-05-09T23:59:02;14.10;99.90
